Nathalie — OJLP — position and weather

sailwx.info

Track history (hours):
 
Tides and Currents Weather Stations Pressure Air Temp Water Temp Dewpoint Dewpoint Depression Visibility Wind Speed Wind Dir Waves Ship Positions

Nathalie

Last reported at 2017-Feb-17 20:27 UTC. Time now 2017-Feb-21 10:11 UTC.
Position N 59°46' E 022°60'.

Length 64 m; draft 3 m.

Type: Cargo ship. MMSI: 230987660.

Date/timePositionNaut miles runAvg speedWind from/ knotsBaromVisibWave heightAir tempDewpointWater temp
2017-Feb-17 20:27N 59°46' E 022°60'8 8.5
2017-Feb-17 19:33N 59°43' E 023°13'9 8.8
2017-Feb-17 18:33N 59°42' E 023°31'9 8.9
2017-Feb-17 17:32N 59°41' E 023°48'  
2017-Feb-15 12:12N 55°54' E 015°28'6 9.6
2017-Feb-15 11:32N 55°51' E 015°18'10 9.3
2017-Feb-15 10:30N 55°45' E 015°04'9 9.6
2017-Feb-15 09:33N 55°39' E 014°52'9 9.5
2017-Feb-15 08:33N 55°33' E 014°39'9 9.3
2017-Feb-15 07:33N 55°27' E 014°26'9 9.2
2017-Feb-15 06:33N 55°22' E 014°13'9 9.0
2017-Feb-15 05:33N 55°20' E 013°58'9 9.2
2017-Feb-15 04:33N 55°18' E 013°42'9 9.3
2017-Feb-15 03:33N 55°17' E 013°26'9 9.3
2017-Feb-15 02:33N 55°17' E 013°09'9 9.2
2017-Feb-15 01:33N 55°15' E 012°53'9 9.0
2017-Feb-15 00:34N 55°18' E 012°38'9 9.3
2017-Feb-14 23:33N 55°28' E 012°40'9 9.5
2017-Feb-14 22:33N 55°37' E 012°42'9 9.5
2017-Feb-14 21:33N 55°47' E 012°41'9 9.2
2017-Feb-14 20:34N 55°56' E 012°38'9 8.5
2017-Feb-14 19:33N 56°04' E 012°37'9 9.3
2017-Feb-14 18:34N 56°09' E 012°22'9 9.2
2017-Feb-14 17:33N 56°06' E 012°07'10 9.7
2017-Feb-14 16:33N 56°00' E 011°52'4 3.9
2017-Feb-14 15:33N 55°57' E 011°56'3 2.8
2017-Feb-14 14:31N 55°58' E 012°01'0 0.0
2017-Feb-14 13:28N 55°58' E 012°01'0 0.0
2017-Feb-14 12:31N 55°58' E 012°01'0 0.0
2017-Feb-14 11:13N 55°58' E 012°01'0 0.0
2017-Feb-14 10:28N 55°58' E 012°01'0 0.0
2017-Feb-14 09:31N 55°58' E 012°01'0 0.0
2017-Feb-14 08:19N 55°58' E 012°01'0 0.0
2017-Feb-14 07:30N 55°58' E 012°01'0 0.0
2017-Feb-14 06:33N 55°58' E 012°01'0 0.0
2017-Feb-14 05:33N 55°58' E 012°01'0 0.0
2017-Feb-14 04:33N 55°58' E 012°01'0 0.0
2017-Feb-14 03:30N 55°58' E 012°01'0 0.0
2017-Feb-14 02:33N 55°58' E 012°01'0 0.0
2017-Feb-14 01:33N 55°58' E 012°01'0 0.0
2017-Feb-14 00:33N 55°58' E 012°01'0 0.0
2017-Feb-13 23:33N 55°58' E 012°01'0 0.0
2017-Feb-13 22:33N 55°58' E 012°01'0 0.0
2017-Feb-13 21:33N 55°58' E 012°01'0 0.0
2017-Feb-13 20:33N 55°58' E 012°01'0 0.0
2017-Feb-13 19:33N 55°58' E 012°01'0 0.0
2017-Feb-13 18:33N 55°58' E 012°01'0 0.0
2017-Feb-13 17:33N 55°58' E 012°01'0 0.0
2017-Feb-13 16:33N 55°58' E 012°01'0 0.0
2017-Feb-13 15:33N 55°58' E 012°01'0 0.0
2017-Feb-13 14:27N 55°58' E 012°01'0 0.0
2017-Feb-13 12:33N 55°58' E 012°01'0 0.0
2017-Feb-13 11:33N 55°58' E 012°01'0 0.0
2017-Feb-13 10:33N 55°58' E 012°01'5 2.4
2017-Feb-13 08:33N 56°02' E 011°58'9 9.3
2017-Feb-13 07:33N 56°08' E 012°11'9 9.1
2017-Feb-13 06:33N 56°08' E 012°27'1010.5
2017-Feb-13 05:33N 56°01' E 012°41'10 9.6
2017-Feb-13 04:33N 55°51' E 012°44'9 9.5
2017-Feb-13 03:34N 55°42' E 012°41'10 9.6
2017-Feb-13 02:33N 55°33' E 012°43'9 9.4
2017-Feb-13 01:33N 55°23' E 012°42'8 7.9
2017-Feb-13 00:33N 55°17' E 012°50'10 9.6
2017-Feb-12 23:33N 55°16' E 013°07'10 9.8
2017-Feb-12 22:29N 55°15' E 013°25'9 9.7
2017-Feb-12 21:33N 55°15' E 013°41'9 9.5
2017-Feb-12 20:33N 55°15' E 013°57'10 9.5
2017-Feb-12 19:33N 55°14' E 014°14'9 9.4
2017-Feb-12 18:34N 55°21' E 014°25'10 9.5
2017-Feb-12 17:33N 55°28' E 014°37'10 9.5
2017-Feb-12 16:33N 55°33' E 014°50'10 9.8
2017-Feb-12 15:32N 55°39' E 015°04'103 9.1
2017-Feb-12 04:09N 57°06' E 016°44'6 9.7
2017-Feb-12 03:33N 57°12' E 016°47'130 9.0
2017-Feb-11 13:04N 59°10' E 018°33'14 9.4
2017-Feb-11 11:32N 59°21' E 018°49'9 9.6
2017-Feb-11 10:33N 59°28' E 019°02'9 8.9
2017-Feb-11 09:33N 59°37' E 019°08'8 8.0
2017-Feb-11 08:33N 59°45' E 019°06'9 9.4
2017-Feb-11 07:33N 59°54' E 019°04'9 9.5
2017-Feb-11 06:34N 60°03' E 019°04'10 9.5
2017-Feb-11 05:33N 60°13' E 019°01'  
2017-Feb-08 17:29N 59°50' E 022°51'7 7.6
2017-Feb-08 16:31N 59°45' E 023°03'8 8.9
2017-Feb-08 15:33N 59°43' E 023°19'9 9.3
2017-Feb-08 14:33N 59°42' E 023°37'  
Track history (hours):
 
Tides and Currents Weather Stations Pressure Air Temp Water Temp Dewpoint Dewpoint Depression Visibility Wind Speed Wind Dir Waves Ship Positions

Nathalie

Last reported at 2017-Feb-17 20:27 UTC. Time now 2017-Feb-21 10:11 UTC.
Position N 59°46' E 022°60'.

Length 64 m; draft 3 m.

Type: Cargo ship. MMSI: 230987660.

Date/timePositionNaut miles runAvg speedWind from/ knotsBaromVisibWave heightAir tempDewpointWater temp
2017-Feb-17 20:27N 59°46' E 022°60'8 8.5
2017-Feb-17 19:33N 59°43' E 023°13'9 8.8
2017-Feb-17 18:33N 59°42' E 023°31'9 8.9
2017-Feb-17 17:32N 59°41' E 023°48'  
2017-Feb-15 12:12N 55°54' E 015°28'6 9.6
2017-Feb-15 11:32N 55°51' E 015°18'10 9.3
2017-Feb-15 10:30N 55°45' E 015°04'9 9.6
2017-Feb-15 09:33N 55°39' E 014°52'9 9.5
2017-Feb-15 08:33N 55°33' E 014°39'9 9.3
2017-Feb-15 07:33N 55°27' E 014°26'9 9.2
2017-Feb-15 06:33N 55°22' E 014°13'9 9.0
2017-Feb-15 05:33N 55°20' E 013°58'9 9.2
2017-Feb-15 04:33N 55°18' E 013°42'9 9.3
2017-Feb-15 03:33N 55°17' E 013°26'9 9.3
2017-Feb-15 02:33N 55°17' E 013°09'9 9.2
2017-Feb-15 01:33N 55°15' E 012°53'9 9.0
2017-Feb-15 00:34N 55°18' E 012°38'9 9.3
2017-Feb-14 23:33N 55°28' E 012°40'9 9.5
2017-Feb-14 22:33N 55°37' E 012°42'9 9.5
2017-Feb-14 21:33N 55°47' E 012°41'9 9.2
2017-Feb-14 20:34N 55°56' E 012°38'9 8.5
2017-Feb-14 19:33N 56°04' E 012°37'9 9.3
2017-Feb-14 18:34N 56°09' E 012°22'9 9.2
2017-Feb-14 17:33N 56°06' E 012°07'10 9.7
2017-Feb-14 16:33N 56°00' E 011°52'4 3.9
2017-Feb-14 15:33N 55°57' E 011°56'3 2.8
2017-Feb-14 14:31N 55°58' E 012°01'0 0.0
2017-Feb-14 13:28N 55°58' E 012°01'0 0.0
2017-Feb-14 12:31N 55°58' E 012°01'0 0.0
2017-Feb-14 11:13N 55°58' E 012°01'0 0.0
2017-Feb-14 10:28N 55°58' E 012°01'0 0.0
2017-Feb-14 09:31N 55°58' E 012°01'0 0.0
2017-Feb-14 08:19N 55°58' E 012°01'0 0.0
2017-Feb-14 07:30N 55°58' E 012°01'0 0.0
2017-Feb-14 06:33N 55°58' E 012°01'0 0.0
2017-Feb-14 05:33N 55°58' E 012°01'0 0.0
2017-Feb-14 04:33N 55°58' E 012°01'0 0.0
2017-Feb-14 03:30N 55°58' E 012°01'0 0.0
2017-Feb-14 02:33N 55°58' E 012°01'0 0.0
2017-Feb-14 01:33N 55°58' E 012°01'0 0.0
2017-Feb-14 00:33N 55°58' E 012°01'0 0.0
2017-Feb-13 23:33N 55°58' E 012°01'0 0.0
2017-Feb-13 22:33N 55°58' E 012°01'0 0.0
2017-Feb-13 21:33N 55°58' E 012°01'0 0.0
2017-Feb-13 20:33N 55°58' E 012°01'0 0.0
2017-Feb-13 19:33N 55°58' E 012°01'0 0.0
2017-Feb-13 18:33N 55°58' E 012°01'0 0.0
2017-Feb-13 17:33N 55°58' E 012°01'0 0.0
2017-Feb-13 16:33N 55°58' E 012°01'0 0.0
2017-Feb-13 15:33N 55°58' E 012°01'0 0.0
2017-Feb-13 14:27N 55°58' E 012°01'0 0.0
2017-Feb-13 12:33N 55°58' E 012°01'0 0.0
2017-Feb-13 11:33N 55°58' E 012°01'0 0.0
2017-Feb-13 10:33N 55°58' E 012°01'5 2.4
2017-Feb-13 08:33N 56°02' E 011°58'9 9.3
2017-Feb-13 07:33N 56°08' E 012°11'9 9.1
2017-Feb-13 06:33N 56°08' E 012°27'1010.5
2017-Feb-13 05:33N 56°01' E 012°41'10 9.6
2017-Feb-13 04:33N 55°51' E 012°44'9 9.5
2017-Feb-13 03:34N 55°42' E 012°41'10 9.6
2017-Feb-13 02:33N 55°33' E 012°43'9 9.4
2017-Feb-13 01:33N 55°23' E 012°42'8 7.9
2017-Feb-13 00:33N 55°17' E 012°50'10 9.6
2017-Feb-12 23:33N 55°16' E 013°07'10 9.8
2017-Feb-12 22:29N 55°15' E 013°25'9 9.7
2017-Feb-12 21:33N 55°15' E 013°41'9 9.5
2017-Feb-12 20:33N 55°15' E 013°57'10 9.5
2017-Feb-12 19:33N 55°14' E 014°14'9 9.4
2017-Feb-12 18:34N 55°21' E 014°25'10 9.5
2017-Feb-12 17:33N 55°28' E 014°37'10 9.5
2017-Feb-12 16:33N 55°33' E 014°50'10 9.8
2017-Feb-12 15:32N 55°39' E 015°04'103 9.1
2017-Feb-12 04:09N 57°06' E 016°44'6 9.7
2017-Feb-12 03:33N 57°12' E 016°47'130 9.0
2017-Feb-11 13:04N 59°10' E 018°33'14 9.4
2017-Feb-11 11:32N 59°21' E 018°49'9 9.6
2017-Feb-11 10:33N 59°28' E 019°02'9 8.9
2017-Feb-11 09:33N 59°37' E 019°08'8 8.0
2017-Feb-11 08:33N 59°45' E 019°06'9 9.4
2017-Feb-11 07:33N 59°54' E 019°04'9 9.5
2017-Feb-11 06:34N 60°03' E 019°04'10 9.5
2017-Feb-11 05:33N 60°13' E 019°01'  
2017-Feb-08 17:29N 59°50' E 022°51'7 7.6
2017-Feb-08 16:31N 59°45' E 023°03'8 8.9
2017-Feb-08 15:33N 59°43' E 023°19'9 9.3
2017-Feb-08 14:33N 59°42' E 023°37'  

Dump ship's entire track history